createdAt,value
2023-10-10T00:02:29.356Z,74.20
2023-10-10T00:05:49.063Z,70.20
2023-10-10T00:17:08.035Z,73.60
2023-10-10T00:20:44.364Z,64.10
2023-10-10T00:25:01.146Z,64.30
2023-10-10T00:28:41.078Z,59.80
2023-10-10T00:31:17.686Z,60.70
2023-10-10T00:41:59.579Z,52.60
2023-10-10T00:46:01.531Z,55.70
2023-10-10T00:52:42.117Z,56.40
2023-10-10T00:57:03.758Z,55.70
2023-10-10T01:00:54.521Z,55.60
2023-10-10T01:04:13.477Z,55.30
2023-10-10T01:07:31.155Z,52.20
2023-10-10T01:11:18.692Z,55.70
2023-10-10T01:15:01.325Z,51.50
2023-10-10T01:17:52.260Z,51.10
2023-10-10T01:26:17.367Z,49.00
2023-10-10T01:30:01.252Z,47.60
2023-10-10T01:33:28.066Z,48.10
2023-10-10T01:37:54.632Z,47.80
2023-10-10T01:55:36.597Z,44.90
2023-10-10T01:58:32.045Z,42.80
2023-10-10T02:01:39.443Z,45.30
2023-10-10T02:04:58.387Z,44.90
2023-10-10T02:11:36.114Z,47.70
2023-10-10T02:14:52.030Z,44.80
2023-10-10T02:26:19.862Z,42.50
2023-10-10T02:29:50.872Z,39.90
2023-10-10T02:33:32.468Z,41.90
2023-10-10T02:40:36.642Z,45.30
2023-10-10T02:44:11.529Z,45.20
2023-10-10T02:47:59.138Z,44.10
2023-10-10T03:07:09.585Z,43.80
2023-10-10T03:10:17.338Z,49.70
2023-10-10T03:14:21.449Z,47.70
2023-10-10T03:18:15.975Z,45.10
2023-10-10T03:39:44.239Z,45.20
2023-10-10T03:46:12.764Z,42.90
2023-10-10T03:49:48.852Z,43.50
2023-10-10T03:54:29.208Z,40.00
2023-10-10T03:57:48.838Z,51.10
2023-10-10T04:01:30.344Z,40.30
2023-10-10T04:05:03.495Z,40.80
2023-10-10T04:08:40.804Z,39.20
2023-10-10T04:12:44.750Z,40.50
2023-10-10T04:16:26.711Z,39.70
2023-10-10T04:20:01.233Z,38.00
2023-10-10T04:23:52.335Z,40.50
2023-10-10T04:28:23.241Z,38.70
2023-10-10T04:34:26.844Z,39.00
2023-10-10T04:35:40.635Z,40.10
2023-10-10T04:40:02.933Z,39.40
2023-10-10T04:42:57.780Z,38.30
2023-10-10T04:46:49.970Z,38.60
2023-10-10T04:50:48.303Z,42.40
2023-10-10T04:54:09.737Z,43.60
2023-10-10T04:57:22.116Z,44.30
2023-10-10T05:00:38.469Z,47.20
2023-10-10T05:04:20.438Z,50.80
2023-10-10T05:07:13.484Z,52.50
2023-10-10T05:10:07.426Z,54.30
2023-10-10T05:12:59.254Z,61.60
2023-10-10T05:16:50.785Z,68.30
2023-10-10T05:20:42.636Z,70.00
2023-10-10T05:32:05.540Z,72.40
2023-10-10T06:08:52.727Z,53.80
2023-10-10T06:16:06.119Z,58.90
2023-10-10T06:23:37.173Z,56.70
2023-10-10T06:27:20.537Z,56.20
2023-10-10T06:38:18.045Z,54.80
2023-10-10T06:54:04.319Z,43.40
2023-10-10T06:57:29.607Z,36.70
2023-10-10T07:02:09.088Z,41.40
2023-10-10T07:09:59.604Z,42.00
2023-10-10T09:01:49.286Z,22.20
2023-10-10T09:05:49.996Z,21.50
2023-10-10T09:09:46.428Z,19.10
2023-10-10T09:13:48.792Z,22.80
2023-10-10T09:20:04.687Z,23.70
2023-10-10T10:02:40.791Z,21.20
2023-10-10T10:27:24.890Z,21.10
2023-10-10T10:30:45.769Z,23.50
2023-10-10T10:35:02.806Z,23.30
2023-10-10T10:44:18.573Z,24.20
2023-10-10T10:47:26.814Z,26.00
2023-10-10T10:51:04.294Z,26.20
2023-10-10T10:55:21.105Z,25.60
2023-10-10T11:06:14.477Z,22.60
2023-10-10T11:14:29.660Z,22.60
2023-10-10T11:18:27.448Z,21.40
2023-10-10T11:22:20.836Z,21.10
2023-10-10T11:26:45.077Z,19.60
2023-10-10T11:30:09.426Z,22.30
2023-10-10T11:33:32.185Z,23.50
2023-10-10T11:41:34.646Z,24.30
2023-10-10T11:44:34.828Z,19.70
2023-10-10T11:47:32.265Z,20.70
2023-10-10T11:51:03.340Z,21.30
2023-10-10T11:53:47.602Z,22.10
2023-10-10T11:56:36.305Z,22.60
2023-10-10T12:00:04.075Z,21.50
2023-10-10T12:04:21.007Z,20.60
2023-10-10T12:08:28.738Z,22.60
2023-10-10T12:15:36.063Z,22.50
2023-10-10T12:23:43.691Z,21.80
2023-10-10T12:28:45.548Z,26.10
2023-10-10T12:31:35.037Z,25.00
2023-10-10T12:34:52.438Z,27.20
2023-10-10T12:46:51.322Z,28.70
2023-10-10T12:50:52.109Z,32.10
2023-10-10T12:54:01.743Z,29.10
2023-10-10T13:30:54.423Z,29.70
2023-10-10T13:35:58.984Z,27.20
2023-10-10T13:44:16.767Z,31.30
2023-10-10T13:48:30.687Z,32.00
2023-10-10T14:56:32.614Z,36.60
2023-10-10T14:59:32.130Z,38.10
2023-10-10T15:07:49.971Z,37.00
2023-10-10T15:15:26.731Z,38.10
2023-10-10T15:19:18.942Z,40.00
2023-10-10T15:31:02.955Z,40.00
2023-10-10T15:34:08.765Z,42.50
2023-10-10T15:38:01.726Z,40.40
2023-10-10T15:41:23.705Z,43.30
2023-10-10T15:44:06.355Z,43.80
2023-10-10T15:47:03.244Z,48.00
2023-10-10T15:49:51.670Z,43.20
2023-10-10T15:53:01.564Z,45.90
2023-10-10T15:56:27.110Z,47.50
2023-10-10T15:59:21.453Z,45.30
2023-10-10T16:02:36.674Z,44.10
2023-10-10T16:05:37.878Z,45.80
2023-10-10T16:08:53.433Z,40.90
2023-10-10T16:11:37.230Z,44.30
2023-10-10T16:14:46.135Z,47.20
2023-10-10T16:20:40.674Z,47.50
2023-10-10T16:23:28.095Z,47.90
2023-10-10T16:26:16.069Z,47.90
2023-10-10T16:29:52.318Z,49.10
2023-10-10T16:39:52.185Z,48.70
2023-10-10T16:43:00.945Z,49.40
2023-10-10T16:45:53.960Z,53.30
2023-10-10T16:48:52.039Z,54.20
2023-10-10T16:52:10.613Z,52.80
2023-10-10T16:58:44.361Z,54.60
2023-10-10T17:02:02.539Z,55.10
2023-10-10T17:04:50.835Z,53.90
2023-10-10T17:08:29.113Z,54.70
2023-10-10T17:12:31.243Z,51.80
2023-10-10T17:19:17.408Z,54.10
2023-10-10T17:22:27.385Z,58.40
2023-10-10T17:25:40.414Z,62.40
2023-10-10T17:28:29.653Z,57.70
2023-10-10T17:31:12.215Z,54.90
2023-10-10T17:34:10.461Z,54.20
2023-10-10T17:42:28.376Z,55.70
2023-10-10T17:46:54.992Z,56.50
2023-10-10T17:54:01.232Z,56.00
2023-10-10T17:57:09.506Z,59.30
2023-10-10T18:01:01.313Z,58.90
2023-10-10T18:14:07.129Z,80.50
2023-10-10T18:17:15.877Z,66.40
2023-10-10T18:20:16.652Z,67.10
2023-10-10T18:23:26.800Z,65.30
2023-10-10T18:26:27.483Z,63.30
2023-10-10T18:29:31.868Z,65.20
2023-10-10T18:32:43.477Z,67.30
2023-10-10T18:36:46.854Z,67.10
2023-10-10T18:39:20.644Z,67.20
2023-10-10T18:42:06.223Z,66.70
2023-10-10T18:45:09.567Z,69.60
2023-10-10T18:48:11.217Z,71.40
2023-10-10T18:51:27.049Z,92.40
2023-10-10T18:54:32.190Z,74.70
2023-10-10T18:57:14.605Z,74.10
2023-10-10T18:59:51.342Z,75.50
2023-10-10T19:02:34.546Z,73.70
2023-10-10T19:05:23.737Z,73.90
2023-10-10T19:08:34.562Z,70.50
2023-10-10T19:11:38.689Z,70.80
2023-10-10T19:14:15.982Z,72.10
2023-10-10T19:16:54.977Z,70.10
2023-10-10T19:19:28.362Z,71.90
2023-10-10T19:22:13.752Z,71.70
2023-10-10T19:25:24.377Z,68.20
2023-10-10T19:33:51.610Z,66.90
2023-10-10T19:37:14.340Z,69.20
2023-10-10T19:42:30.899Z,67.10
2023-10-10T19:48:17.656Z,70.30
2023-10-10T19:50:56.761Z,66.20
2023-10-10T19:53:41.034Z,73.70
2023-10-10T19:56:26.425Z,51.30
2023-10-10T19:59:07.972Z,72.60
2023-10-10T20:01:53.086Z,75.10
2023-10-10T20:08:19.075Z,62.90
2023-10-10T20:10:52.414Z,78.40
2023-10-10T20:13:31.206Z,73.10
2023-10-10T20:16:29.869Z,100.20
2023-10-10T20:19:12.472Z,82.30
2023-10-10T20:21:53.974Z,79.70
2023-10-10T20:24:37.290Z,80.30
2023-10-10T20:27:29.007Z,82.40
2023-10-10T20:30:08.309Z,76.60
2023-10-10T20:32:46.406Z,85.00
2023-10-10T20:35:40.597Z,75.60
2023-10-10T20:38:29.051Z,87.70
2023-10-10T20:41:13.856Z,84.40
2023-10-10T20:43:46.674Z,84.50
2023-10-10T20:46:32.969Z,86.00
2023-10-10T20:53:02.940Z,67.50
2023-10-10T20:56:00.465Z,72.70
2023-10-10T21:01:34.996Z,73.60
2023-10-10T21:07:08.257Z,71.10
2023-10-10T21:09:42.837Z,69.70
2023-10-10T21:12:20.417Z,70.90
2023-10-10T21:15:22.743Z,67.40
2023-10-10T21:18:00.932Z,72.80
2023-10-10T21:20:42.060Z,70.60
2023-10-10T21:23:30.475Z,76.40
2023-10-10T21:26:28.771Z,73.40
2023-10-10T21:29:11.168Z,67.80
2023-10-10T21:31:51.768Z,63.80
2023-10-10T21:34:28.013Z,70.70
2023-10-10T21:37:07.974Z,70.30
2023-10-10T21:39:49.224Z,65.80
2023-10-10T21:42:26.266Z,66.00
2023-10-10T21:45:02.552Z,64.80
2023-10-10T21:47:42.864Z,63.20
2023-10-10T21:50:17.386Z,62.20
2023-10-10T21:52:54.932Z,64.90
2023-10-10T21:55:31.635Z,58.80
2023-10-10T21:58:08.057Z,59.50
2023-10-10T22:00:47.620Z,63.30
2023-10-10T22:03:25.129Z,61.50
2023-10-10T22:08:45.537Z,56.30
2023-10-10T22:11:21.006Z,65.10
2023-10-10T22:16:35.126Z,63.50
2023-10-10T22:19:22.059Z,68.10
2023-10-10T22:21:52.647Z,65.70
2023-10-10T22:24:24.302Z,68.80
2023-10-10T22:26:57.740Z,69.20
2023-10-10T22:29:31.483Z,61.90
2023-10-10T22:32:06.912Z,60.40
2023-10-10T22:34:49.326Z,59.20
2023-10-10T22:37:21.894Z,58.30
2023-10-10T22:40:19.464Z,34.80
2023-10-10T22:42:55.970Z,56.20
2023-10-10T22:45:51.741Z,51.20
2023-10-10T22:48:23.923Z,49.90
2023-10-10T22:51:11.390Z,54.30
2023-10-10T22:54:00.345Z,47.20
2023-10-10T22:56:37.696Z,53.50
2023-10-10T22:59:14.830Z,50.00
2023-10-10T23:01:51.014Z,49.40
2023-10-10T23:04:28.891Z,49.10
2023-10-10T23:07:05.374Z,47.00
2023-10-10T23:09:39.428Z,48.40
2023-10-10T23:12:18.813Z,46.90
2023-10-10T23:14:51.886Z,47.90
2023-10-10T23:17:27.697Z,39.20
2023-10-10T23:20:05.845Z,41.40
2023-10-10T23:22:38.528Z,44.90
2023-10-10T23:25:17.548Z,47.20
2023-10-10T23:28:05.189Z,41.50
2023-10-10T23:30:45.291Z,39.20
2023-10-10T23:33:18.366Z,40.40
2023-10-10T23:35:52.338Z,37.50
2023-10-10T23:38:30.628Z,38.00
2023-10-10T23:41:03.605Z,37.30
2023-10-10T23:43:38.701Z,37.20
2023-10-10T23:46:16.043Z,33.20
2023-10-10T23:48:48.968Z,34.60
2023-10-10T23:51:25.949Z,33.70
2023-10-10T23:54:00.052Z,35.00
2023-10-10T23:56:35.586Z,32.90
2023-10-10T23:59:24.297Z,31.40
